sensor_id;sensor_type;location;lat;lon;timestamp;pressure;altitude;pressure_sealevel;temperature
45034;BMP280;30771;47.988;-4.186;2023-02-11T07:02:32;100980.06;;;7.58
45034;BMP280;30771;47.988;-4.186;2023-02-11T07:04:57;100974.16;;;7.47
45034;BMP280;30771;47.988;-4.186;2023-02-11T07:07:22;100973.66;;;7.44
45034;BMP280;30771;47.988;-4.186;2023-02-11T07:09:47;100977.09;;;7.44
45034;BMP280;30771;47.988;-4.186;2023-02-11T07:12:13;100970.25;;;7.35
45034;BMP280;30771;47.988;-4.186;2023-02-11T07:14:38;100980.88;;;7.42
45034;BMP280;30771;47.988;-4.186;2023-02-11T07:17:04;100990.84;;;7.46
45034;BMP280;30771;47.988;-4.186;2023-02-11T07:19:29;100972.22;;;7.33
45034;BMP280;30771;47.988;-4.186;2023-02-11T07:21:54;100991.53;;;7.40
45034;BMP280;30771;47.988;-4.186;2023-02-11T07:24:20;100997.25;;;7.44
45034;BMP280;30771;47.988;-4.186;2023-02-11T07:26:45;100985.13;;;7.35
45034;BMP280;30771;47.988;-4.186;2023-02-11T07:29:11;100995.31;;;7.38
45034;BMP280;30771;47.988;-4.186;2023-02-11T07:31:36;100996.28;;;7.29
45034;BMP280;30771;47.988;-4.186;2023-02-11T07:34:02;100990.03;;;7.22
45034;BMP280;30771;47.988;-4.186;2023-02-11T07:36:28;101004.78;;;7.23
45034;BMP280;30771;47.988;-4.186;2023-02-11T07:38:54;101010.97;;;7.22
45034;BMP280;30771;47.988;-4.186;2023-02-11T07:41:22;101015.22;;;7.15
45034;BMP280;30771;47.988;-4.186;2023-02-11T07:43:48;101028.69;;;7.12
45034;BMP280;30771;47.988;-4.186;2023-02-11T07:46:16;101039.94;;;7.04
45034;BMP280;30771;47.988;-4.186;2023-02-11T07:48:41;101032.06;;;6.96
45034;BMP280;30771;47.988;-4.186;2023-02-11T07:51:13;101049.25;;;6.99
45034;BMP280;30771;47.988;-4.186;2023-02-11T07:53:38;101049.19;;;6.91
45034;BMP280;30771;47.988;-4.186;2023-02-11T07:56:05;101045.06;;;6.80
45034;BMP280;30771;47.988;-4.186;2023-02-11T07:58:31;101031.63;;;6.67
45034;BMP280;30771;47.988;-4.186;2023-02-11T08:01:07;101062.25;;;6.75
45034;BMP280;30771;47.988;-4.186;2023-02-11T08:03:34;101052.38;;;6.60
45034;BMP280;30771;47.988;-4.186;2023-02-11T08:06:04;101056.81;;;6.60
45034;BMP280;30771;47.988;-4.186;2023-02-11T08:08:30;101059.09;;;6.63
45034;BMP280;30771;47.988;-4.186;2023-02-11T08:10:55;101051.56;;;6.60
45034;BMP280;30771;47.988;-4.186;2023-02-11T08:13:21;101047.16;;;6.69
45034;BMP280;30771;47.988;-4.186;2023-02-11T08:15:46;101057.16;;;6.73
45034;BMP280;30771;47.988;-4.186;2023-02-11T08:18:11;101070.94;;;6.83
45034;BMP280;30771;47.988;-4.186;2023-02-11T08:20:37;101057.53;;;6.78
45034;BMP280;30771;47.988;-4.186;2023-02-11T08:23:05;101058.16;;;6.80
45034;BMP280;30771;47.988;-4.186;2023-02-11T08:25:31;101047.38;;;6.75
45034;BMP280;30771;47.988;-4.186;2023-02-11T08:27:57;101053.47;;;6.92
45034;BMP280;30771;47.988;-4.186;2023-02-11T08:30:23;101069.75;;;7.11
45034;BMP280;30771;47.988;-4.186;2023-02-11T08:32:48;101054.19;;;7.10
45034;BMP280;30771;47.988;-4.186;2023-02-11T08:35:13;101076.31;;;7.23
45034;BMP280;30771;47.988;-4.186;2023-02-11T08:37:39;101067.47;;;7.24
45034;BMP280;30771;47.988;-4.186;2023-02-11T08:40:04;101068.31;;;7.33
45034;BMP280;30771;47.988;-4.186;2023-02-11T08:42:30;101086.50;;;7.51
45034;BMP280;30771;47.988;-4.186;2023-02-11T08:44:55;101075.53;;;7.47
45034;BMP280;30771;47.988;-4.186;2023-02-11T08:47:20;101102.41;;;7.73
45034;BMP280;30771;47.988;-4.186;2023-02-11T08:49:45;101068.16;;;7.67
45034;BMP280;30771;47.988;-4.186;2023-02-11T08:52:11;101072.41;;;7.76
45034;BMP280;30771;47.988;-4.186;2023-02-11T08:54:36;101099.13;;;8.03
45034;BMP280;30771;47.988;-4.186;2023-02-11T08:57:02;101098.59;;;8.08
45034;BMP280;30771;47.988;-4.186;2023-02-11T08:59:28;101111.72;;;8.16
45034;BMP280;30771;47.988;-4.186;2023-02-11T09:01:53;101082.56;;;8.11
45034;BMP280;30771;47.988;-4.186;2023-02-11T09:04:19;101103.66;;;8.25
45034;BMP280;30771;47.988;-4.186;2023-02-11T09:06:44;101083.19;;;8.21
45034;BMP280;30771;47.988;-4.186;2023-02-11T09:09:14;101082.53;;;8.27
45034;BMP280;30771;47.988;-4.186;2023-02-11T09:11:41;101119.84;;;8.53
45034;BMP280;30771;47.988;-4.186;2023-02-11T09:14:14;101109.53;;;8.52
45034;BMP280;30771;47.988;-4.186;2023-02-11T09:16:41;101128.00;;;8.66
45034;BMP280;30771;47.988;-4.186;2023-02-11T09:19:08;101134.38;;;8.72
45034;BMP280;30771;47.988;-4.186;2023-02-11T09:21:34;101130.97;;;8.71
45034;BMP280;30771;47.988;-4.186;2023-02-11T09:23:59;101148.00;;;8.83
45034;BMP280;30771;47.988;-4.186;2023-02-11T09:26:27;101141.09;;;8.82
45034;BMP280;30771;47.988;-4.186;2023-02-11T09:28:52;101153.19;;;8.91
45034;BMP280;30771;47.988;-4.186;2023-02-11T09:31:20;101162.72;;;8.92
45034;BMP280;30771;47.988;-4.186;2023-02-11T09:33:47;101208.84;;;9.25
45034;BMP280;30771;47.988;-4.186;2023-02-11T09:36:19;101231.13;;;9.38
45034;BMP280;30771;47.988;-4.186;2023-02-11T09:38:45;101213.78;;;9.29
45034;BMP280;30771;47.988;-4.186;2023-02-11T09:43:51;101232.59;;;9.40
45034;BMP280;30771;47.988;-4.186;2023-02-11T09:46:18;101249.16;;;9.41
45034;BMP280;30771;47.988;-4.186;2023-02-11T09:48:46;101293.44;;;9.60
45034;BMP280;30771;47.988;-4.186;2023-02-11T09:51:18;101305.28;;;9.64
45034;BMP280;30771;47.988;-4.186;2023-02-11T09:53:45;101317.72;;;9.70
45034;BMP280;30771;47.988;-4.186;2023-02-11T09:56:13;101355.25;;;9.94
45034;BMP280;30771;47.988;-4.186;2023-02-11T09:58:41;101352.97;;;9.91
45034;BMP280;30771;47.988;-4.186;2023-02-11T10:02:29;101405.69;;;10.06
45034;BMP280;30771;47.988;-4.186;2023-02-11T10:04:56;101429.66;;;10.11
45034;BMP280;30771;47.988;-4.186;2023-02-11T10:07:36;101447.59;;;10.15
45034;BMP280;30771;47.988;-4.186;2023-02-11T10:16:06;101481.50;;;10.10
45034;BMP280;30771;47.988;-4.186;2023-02-11T10:23:42;101563.63;;;10.45
45034;BMP280;30771;47.988;-4.186;2023-02-11T10:26:14;101583.22;;;10.50
45034;BMP280;30771;47.988;-4.186;2023-02-11T10:28:44;101584.31;;;10.56
45034;BMP280;30771;47.988;-4.186;2023-02-11T10:31:15;101594.34;;;10.52
45034;BMP280;30771;47.988;-4.186;2023-02-11T10:36:15;101652.03;;;10.78
45034;BMP280;30771;47.988;-4.186;2023-02-11T10:38:41;101652.44;;;10.67
45034;BMP280;30771;47.988;-4.186;2023-02-11T10:41:17;101670.53;;;10.70
45034;BMP280;30771;47.988;-4.186;2023-02-11T10:43:44;101686.81;;;10.73
45034;BMP280;30771;47.988;-4.186;2023-02-11T10:46:16;101694.34;;;10.84
45034;BMP280;30771;47.988;-4.186;2023-02-11T10:51:26;101732.13;;;10.99
45034;BMP280;30771;47.988;-4.186;2023-02-11T10:56:31;101742.16;;;11.12
45034;BMP280;30771;47.988;-4.186;2023-02-11T10:59:13;101729.03;;;11.04
45034;BMP280;30771;47.988;-4.186;2023-02-11T11:07:29;101769.00;;;11.15
45034;BMP280;30771;47.988;-4.186;2023-02-11T11:09:56;101796.91;;;11.41
45034;BMP280;30771;47.988;-4.186;2023-02-11T11:12:26;101809.06;;;11.50
45034;BMP280;30771;47.988;-4.186;2023-02-11T11:15:01;101813.41;;;11.43
45034;BMP280;30771;47.988;-4.186;2023-02-11T11:17:27;101866.91;;;11.51
45034;BMP280;30771;47.988;-4.186;2023-02-11T11:19:53;101880.72;;;11.61
45034;BMP280;30771;47.988;-4.186;2023-02-11T11:22:22;101902.59;;;11.78
45034;BMP280;30771;47.988;-4.186;2023-02-11T11:24:48;101901.78;;;11.77
45034;BMP280;30771;47.988;-4.186;2023-02-11T11:27:20;101912.50;;;11.76
45034;BMP280;30771;47.988;-4.186;2023-02-11T11:29:54;101932.19;;;11.96
45034;BMP280;30771;47.988;-4.186;2023-02-11T11:32:29;101926.16;;;11.87
45034;BMP280;30771;47.988;-4.186;2023-02-11T11:34:59;101970.47;;;12.00
45034;BMP280;30771;47.988;-4.186;2023-02-11T11:37:27;101962.63;;;11.84
45034;BMP280;30771;47.988;-4.186;2023-02-11T11:42:29;101979.59;;;11.81
45034;BMP280;30771;47.988;-4.186;2023-02-11T11:47:28;101981.78;;;11.78
45034;BMP280;30771;47.988;-4.186;2023-02-11T11:55:24;101970.44;;;11.61
45034;BMP280;30771;47.988;-4.186;2023-02-11T11:57:50;101972.94;;;11.63
45034;BMP280;30771;47.988;-4.186;2023-02-11T12:00:23;101978.66;;;11.66
45034;BMP280;30771;47.988;-4.186;2023-02-11T12:03:03;101994.66;;;11.73
45034;BMP280;30771;47.988;-4.186;2023-02-11T12:16:43;101990.06;;;12.05
45034;BMP280;30771;47.988;-4.186;2023-02-11T12:27:47;102059.13;;;12.25
45034;BMP280;30771;47.988;-4.186;2023-02-11T12:41:14;102033.06;;;12.22
45034;BMP280;30771;47.988;-4.186;2023-02-11T12:43:43;102031.38;;;12.29
45034;BMP280;30771;47.988;-4.186;2023-02-11T12:46:13;102029.22;;;12.33
45034;BMP280;30771;47.988;-4.186;2023-02-11T12:52:06;102071.28;;;12.42
45034;BMP280;30771;47.988;-4.186;2023-02-11T12:54:46;102083.84;;;12.40
45034;BMP280;30771;47.988;-4.186;2023-02-11T12:57:18;102053.41;;;12.22
45034;BMP280;30771;47.988;-4.186;2023-02-11T13:05:51;102093.38;;;12.02
45034;BMP280;30771;47.988;-4.186;2023-02-11T13:10:54;102058.31;;;11.78
45034;BMP280;30771;47.988;-4.186;2023-02-11T13:13:32;102068.38;;;11.82
45034;BMP280;30771;47.988;-4.186;2023-02-11T13:15:59;102076.28;;;11.82
45034;BMP280;30771;47.988;-4.186;2023-02-11T13:32:14;102043.78;;;11.82
45034;BMP280;30771;47.988;-4.186;2023-02-11T13:37:51;102051.38;;;11.85
45034;BMP280;30771;47.988;-4.186;2023-02-11T13:42:51;102053.66;;;11.88
45034;BMP280;30771;47.988;-4.186;2023-02-11T13:45:46;102053.66;;;11.88
45034;BMP280;30771;47.988;-4.186;2023-02-11T13:48:37;102029.44;;;11.84
45034;BMP280;30771;47.988;-4.186;2023-02-11T13:51:09;102036.13;;;11.95
45034;BMP280;30771;47.988;-4.186;2023-02-11T13:53:56;102028.91;;;11.97
45034;BMP280;30771;47.988;-4.186;2023-02-11T13:56:42;102033.03;;;11.99
45034;BMP280;30771;47.988;-4.186;2023-02-11T14:02:17;102026.75;;;12.00
45034;BMP280;30771;47.988;-4.186;2023-02-11T14:07:30;102029.25;;;11.94
45034;BMP280;30771;47.988;-4.186;2023-02-11T14:09:55;102031.91;;;11.94
45034;BMP280;30771;47.988;-4.186;2023-02-11T14:12:24;102073.75;;;12.05
45034;BMP280;30771;47.988;-4.186;2023-02-11T14:17:35;102038.31;;;11.99
45034;BMP280;30771;47.988;-4.186;2023-02-11T14:20:02;102065.94;;;12.19
45034;BMP280;30771;47.988;-4.186;2023-02-11T14:22:42;102036.09;;;12.11
45034;BMP280;30771;47.988;-4.186;2023-02-11T14:25:26;102052.22;;;12.24
45034;BMP280;30771;47.988;-4.186;2023-02-11T14:27:55;102033.56;;;12.26
45034;BMP280;30771;47.988;-4.186;2023-02-11T14:41:45;101997.13;;;12.89
45034;BMP280;30771;47.988;-4.186;2023-02-11T14:44:17;102014.22;;;13.01
45034;BMP280;30771;47.988;-4.186;2023-02-11T14:46:46;102015.81;;;12.87
45034;BMP280;30771;47.988;-4.186;2023-02-11T14:49:21;102003.00;;;12.76
45034;BMP280;30771;47.988;-4.186;2023-02-11T14:51:48;102006.50;;;12.77
45034;BMP280;30771;47.988;-4.186;2023-02-11T14:54:19;102008.78;;;12.80
45034;BMP280;30771;47.988;-4.186;2023-02-11T14:56:45;101998.00;;;12.81
45034;BMP280;30771;47.988;-4.186;2023-02-11T14:59:19;101977.50;;;12.83
45034;BMP280;30771;47.988;-4.186;2023-02-11T15:01:48;101977.75;;;12.96
45034;BMP280;30771;47.988;-4.186;2023-02-11T15:04:43;101975.31;;;13.09
45034;BMP280;30771;47.988;-4.186;2023-02-11T15:07:11;101986.59;;;13.18
45034;BMP280;30771;47.988;-4.186;2023-02-11T15:09:46;101984.13;;;13.16
45034;BMP280;30771;47.988;-4.186;2023-02-11T15:12:26;101984.78;;;13.18
45034;BMP280;30771;47.988;-4.186;2023-02-11T15:14:55;101986.06;;;13.22
45034;BMP280;30771;47.988;-4.186;2023-02-11T15:17:22;102008.25;;;13.36
45034;BMP280;30771;47.988;-4.186;2023-02-11T15:19:54;102007.22;;;13.37
45034;BMP280;30771;47.988;-4.186;2023-02-11T15:22:23;102016.38;;;13.35
45034;BMP280;30771;47.988;-4.186;2023-02-11T15:25:13;102027.75;;;13.20
45034;BMP280;30771;47.988;-4.186;2023-02-11T15:27:51;102031.63;;;13.10
45034;BMP280;30771;47.988;-4.186;2023-02-11T15:32:56;102026.50;;;12.94
45034;BMP280;30771;47.988;-4.186;2023-02-11T15:35:22;102038.06;;;12.93
45034;BMP280;30771;47.988;-4.186;2023-02-11T15:37:48;102028.22;;;12.87
45034;BMP280;30771;47.988;-4.186;2023-02-11T15:40:25;102024.78;;;12.78
45034;BMP280;30771;47.988;-4.186;2023-02-11T15:43:02;102024.50;;;12.73
45034;BMP280;30771;47.988;-4.186;2023-02-11T15:45:56;102019.28;;;12.65
45034;BMP280;30771;47.988;-4.186;2023-02-11T15:48:45;102032.50;;;12.65
45034;BMP280;30771;47.988;-4.186;2023-02-11T15:51:20;102024.59;;;12.57
45034;BMP280;30771;47.988;-4.186;2023-02-11T15:53:49;102022.31;;;12.54
45034;BMP280;30771;47.988;-4.186;2023-02-11T15:58:44;102012.31;;;12.42
45034;BMP280;30771;47.988;-4.186;2023-02-11T16:01:12;102007.75;;;12.36
45034;BMP280;30771;47.988;-4.186;2023-02-11T16:03:38;102004.47;;;12.34
45034;BMP280;30771;47.988;-4.186;2023-02-11T16:06:24;102009.97;;;12.24
45034;BMP280;30771;47.988;-4.186;2023-02-11T16:09:02;102006.84;;;12.21
45034;BMP280;30771;47.988;-4.186;2023-02-11T16:11:33;102004.09;;;12.14
45034;BMP280;30771;47.988;-4.186;2023-02-11T16:13:59;102008.53;;;12.13
45034;BMP280;30771;47.988;-4.186;2023-02-11T16:16:33;101994.38;;;12.06
45034;BMP280;30771;47.988;-4.186;2023-02-11T16:19:00;101991.56;;;12.08
45034;BMP280;30771;47.988;-4.186;2023-02-11T16:21:29;101974.25;;;11.97
45034;BMP280;30771;47.988;-4.186;2023-02-11T16:23:56;101969.97;;;11.96
45034;BMP280;30771;47.988;-4.186;2023-02-11T16:26:31;101975.78;;;11.92
45034;BMP280;30771;47.988;-4.186;2023-02-11T16:31:37;101957.34;;;11.84
45034;BMP280;30771;47.988;-4.186;2023-02-11T16:34:10;101942.53;;;11.75
45034;BMP280;30771;47.988;-4.186;2023-02-11T16:36:36;101901.06;;;11.53
45034;BMP280;30771;47.988;-4.186;2023-02-11T16:39:01;101917.00;;;11.59
45034;BMP280;30771;47.988;-4.186;2023-02-11T16:41:26;101915.88;;;11.54
45034;BMP280;30771;47.988;-4.186;2023-02-11T16:43:55;101907.50;;;11.50
45034;BMP280;30771;47.988;-4.186;2023-02-11T16:46:21;101892.53;;;11.43
45034;BMP280;30771;47.988;-4.186;2023-02-11T16:48:46;101881.16;;;11.34
45034;BMP280;30771;47.988;-4.186;2023-02-11T16:51:11;101881.34;;;11.33
45034;BMP280;30771;47.988;-4.186;2023-02-11T16:53:37;101843.84;;;11.06
45034;BMP280;30771;47.988;-4.186;2023-02-11T16:56:02;101861.09;;;11.17
45034;BMP280;30771;47.988;-4.186;2023-02-11T16:58:28;101830.38;;;10.93
45034;BMP280;30771;47.988;-4.186;2023-02-11T17:00:53;101828.69;;;10.92
45034;BMP280;30771;47.988;-4.186;2023-02-11T17:03:22;101839.91;;;10.94
45034;BMP280;30771;47.988;-4.186;2023-02-11T17:05:48;101811.94;;;10.77
45034;BMP280;30771;47.988;-4.186;2023-02-11T17:08:14;101829.56;;;10.77
45034;BMP280;30771;47.988;-4.186;2023-02-11T17:10:39;101808.84;;;10.66
45034;BMP280;30771;47.988;-4.186;2023-02-11T17:13:04;101809.00;;;10.64
45034;BMP280;30771;47.988;-4.186;2023-02-11T17:15:30;101788.78;;;10.49
45034;BMP280;30771;47.988;-4.186;2023-02-11T17:17:55;101801.94;;;10.49
45034;BMP280;30771;47.988;-4.186;2023-02-11T17:20:21;101771.16;;;10.33
45034;BMP280;30771;47.988;-4.186;2023-02-11T17:22:46;101771.81;;;10.27
45034;BMP280;30771;47.988;-4.186;2023-02-11T17:25:11;101739.41;;;10.10
45034;BMP280;30771;47.988;-4.186;2023-02-11T17:27:37;101737.31;;;10.06
45034;BMP280;30771;47.988;-4.186;2023-02-11T17:30:02;101735.16;;;10.01
45034;BMP280;30771;47.988;-4.186;2023-02-11T17:32:28;101700.28;;;9.83
45034;BMP280;30771;47.988;-4.186;2023-02-11T17:34:53;101715.72;;;9.94
45034;BMP280;30771;47.988;-4.186;2023-02-11T17:37:18;101697.00;;;9.81
45034;BMP280;30771;47.988;-4.186;2023-02-11T17:39:44;101665.72;;;9.62
45034;BMP280;30771;47.988;-4.186;2023-02-11T17:42:09;101672.47;;;9.65
45034;BMP280;30771;47.988;-4.186;2023-02-11T17:44:34;101684.66;;;9.66
45034;BMP280;30771;47.988;-4.186;2023-02-11T17:47:00;101655.38;;;9.45
45034;BMP280;30771;47.988;-4.186;2023-02-11T17:49:25;101645.81;;;9.36
45034;BMP280;30771;47.988;-4.186;2023-02-11T17:51:50;101650.75;;;9.39
45034;BMP280;30771;47.988;-4.186;2023-02-11T17:54:17;101627.22;;;9.21
45034;BMP280;30771;47.988;-4.186;2023-02-11T17:56:43;101618.16;;;9.07
45034;BMP280;30771;47.988;-4.186;2023-02-11T17:59:10;101629.16;;;9.11
45034;BMP280;30771;47.988;-4.186;2023-02-11T18:01:37;101625.22;;;9.07
45034;BMP280;30771;47.988;-4.186;2023-02-11T18:04:04;101591.00;;;8.83
45034;BMP280;30771;47.988;-4.186;2023-02-11T18:06:30;101594.75;;;8.80
45034;BMP280;30771;47.988;-4.186;2023-02-11T18:08:56;101592.78;;;8.82
45034;BMP280;30771;47.988;-4.186;2023-02-11T18:11:22;101592.75;;;8.74
45034;BMP280;30771;47.988;-4.186;2023-02-11T18:13:47;101574.81;;;8.62
45034;BMP280;30771;47.988;-4.186;2023-02-11T18:16:13;101567.41;;;8.57
45034;BMP280;30771;47.988;-4.186;2023-02-11T18:18:38;101562.31;;;8.56
45034;BMP280;30771;47.988;-4.186;2023-02-11T18:21:03;101549.03;;;8.49
45034;BMP280;30771;47.988;-4.186;2023-02-11T18:23:29;101551.44;;;8.43
45034;BMP280;30771;47.988;-4.186;2023-02-11T18:25:54;101531.69;;;8.30
45034;BMP280;30771;47.988;-4.186;2023-02-11T18:28:20;101530.84;;;8.22
45034;BMP280;30771;47.988;-4.186;2023-02-11T18:30:46;101540.69;;;8.28
45034;BMP280;30771;47.988;-4.186;2023-02-11T18:33:11;101524.72;;;8.13
45034;BMP280;30771;47.988;-4.186;2023-02-11T18:35:37;101515.81;;;8.06
45034;BMP280;30771;47.988;-4.186;2023-02-11T18:38:03;101505.75;;;7.94
45034;BMP280;30771;47.988;-4.186;2023-02-11T18:40:28;101507.72;;;7.92
45034;BMP280;30771;47.988;-4.186;2023-02-11T18:42:53;101488.81;;;7.80
45034;BMP280;30771;47.988;-4.186;2023-02-11T18:45:19;101497.81;;;7.78
45034;BMP280;30771;47.988;-4.186;2023-02-11T18:47:44;101475.28;;;7.67
45034;BMP280;30771;47.988;-4.186;2023-02-11T18:50:10;101474.28;;;7.60
45034;BMP280;30771;47.988;-4.186;2023-02-11T18:52:35;101474.56;;;7.57
45034;BMP280;30771;47.988;-4.186;2023-02-11T18:55:01;101450.41;;;7.45
45034;BMP280;30771;47.988;-4.186;2023-02-11T18:57:26;101434.09;;;7.34
45034;BMP280;30771;47.988;-4.186;2023-02-11T18:59:52;101448.75;;;7.44
45034;BMP280;30771;47.988;-4.186;2023-02-11T19:02:18;101438.19;;;7.36
45034;BMP280;30771;47.988;-4.186;2023-02-11T19:04:43;101440.38;;;7.41
45034;BMP280;30771;47.988;-4.186;2023-02-11T19:07:08;101430.66;;;7.33
45034;BMP280;30771;47.988;-4.186;2023-02-11T19:09:34;101429.38;;;7.37
45034;BMP280;30771;47.988;-4.186;2023-02-11T19:12:00;101409.31;;;7.28
45034;BMP280;30771;47.988;-4.186;2023-02-11T19:14:30;101417.84;;;7.30
45034;BMP280;30771;47.988;-4.186;2023-02-11T19:16:57;101404.41;;;7.25
45034;BMP280;30771;47.988;-4.186;2023-02-11T19:19:24;101368.88;;;7.05
45034;BMP280;30771;47.988;-4.186;2023-02-11T19:21:50;101367.91;;;7.06
45034;BMP280;30771;47.988;-4.186;2023-02-11T19:24:16;101362.81;;;7.05
45034;BMP280;30771;47.988;-4.186;2023-02-11T19:26:42;101336.06;;;6.93
45034;BMP280;30771;47.988;-4.186;2023-02-11T19:29:07;101330.63;;;6.87
45034;BMP280;30771;47.988;-4.186;2023-02-11T19:31:33;101323.06;;;6.84
45034;BMP280;30771;47.988;-4.186;2023-02-11T19:33:59;101336.44;;;6.98
45034;BMP280;30771;47.988;-4.186;2023-02-11T19:36:25;101344.19;;;7.08
45034;BMP280;30771;47.988;-4.186;2023-02-11T19:38:51;101307.56;;;6.90
45034;BMP280;30771;47.988;-4.186;2023-02-11T19:41:16;101319.50;;;7.10
45034;BMP280;30771;47.988;-4.186;2023-02-11T19:43:41;101312.75;;;7.08
45034;BMP280;30771;47.988;-4.186;2023-02-11T19:46:07;101270.53;;;6.85
45034;BMP280;30771;47.988;-4.186;2023-02-11T19:48:32;101290.47;;;7.04
45034;BMP280;30771;47.988;-4.186;2023-02-11T19:51:06;101296.94;;;7.17
45034;BMP280;30771;47.988;-4.186;2023-02-11T19:53:31;101304.03;;;7.25
45034;BMP280;30771;47.988;-4.186;2023-02-11T19:56:00;101294.19;;;7.19
45034;BMP280;30771;47.988;-4.186;2023-02-11T19:58:25;101284.00;;;7.16
45034;BMP280;30771;47.988;-4.186;2023-02-11T20:00:50;101279.91;;;7.13
45034;BMP280;30771;47.988;-4.186;2023-02-11T20:03:16;101291.69;;;7.17
45034;BMP280;30771;47.988;-4.186;2023-02-11T20:05:41;101291.56;;;7.19
45034;BMP280;30771;47.988;-4.186;2023-02-11T20:08:06;101270.53;;;7.03
45034;BMP280;30771;47.988;-4.186;2023-02-11T20:10:33;101262.81;;;7.01
45034;BMP280;30771;47.988;-4.186;2023-02-11T20:12:58;101252.66;;;6.98
45034;BMP280;30771;47.988;-4.186;2023-02-11T20:15:23;101233.59;;;6.88
45034;BMP280;30771;47.988;-4.186;2023-02-11T20:17:48;101262.50;;;7.04
45034;BMP280;30771;47.988;-4.186;2023-02-11T20:20:14;101257.59;;;7.01
45034;BMP280;30771;47.988;-4.186;2023-02-11T20:22:39;101266.44;;;7.08
45034;BMP280;30771;47.988;-4.186;2023-02-11T20:25:05;101262.66;;;7.03
45034;BMP280;30771;47.988;-4.186;2023-02-11T20:27:30;101268.91;;;7.02
45034;BMP280;30771;47.988;-4.186;2023-02-11T20:29:55;101265.44;;;7.01
45034;BMP280;30771;47.988;-4.186;2023-02-11T20:32:21;101264.44;;;7.02
45034;BMP280;30771;47.988;-4.186;2023-02-11T20:34:46;101262.16;;;6.99
45034;BMP280;30771;47.988;-4.186;2023-02-11T20:37:11;101266.28;;;7.02
45034;BMP280;30771;47.988;-4.186;2023-02-11T20:39:37;101260.84;;;7.03
45034;BMP280;30771;47.988;-4.186;2023-02-11T20:42:02;101250.47;;;6.94
45034;BMP280;30771;47.988;-4.186;2023-02-11T20:44:27;101245.72;;;6.89
45034;BMP280;30771;47.988;-4.186;2023-02-11T20:46:53;101250.31;;;6.87
45034;BMP280;30771;47.988;-4.186;2023-02-11T20:49:20;101239.28;;;6.84
45034;BMP280;30771;47.988;-4.186;2023-02-11T20:51:46;101244.38;;;6.85
45034;BMP280;30771;47.988;-4.186;2023-02-11T20:54:14;101232.88;;;6.78
45034;BMP280;30771;47.988;-4.186;2023-02-11T20:56:40;101248.34;;;6.89
45034;BMP280;30771;47.988;-4.186;2023-02-11T20:59:06;101242.28;;;6.89
45034;BMP280;30771;47.988;-4.186;2023-02-11T21:01:34;101250.13;;;6.89
45034;BMP280;30771;47.988;-4.186;2023-02-11T21:04:04;101242.22;;;6.81
45034;BMP280;30771;47.988;-4.186;2023-02-11T21:06:36;101232.88;;;6.78
45034;BMP280;30771;47.988;-4.186;2023-02-11T21:09:03;101236.25;;;6.71
45034;BMP280;30771;47.988;-4.186;2023-02-11T21:11:29;101249.59;;;6.77
45034;BMP280;30771;47.988;-4.186;2023-02-11T21:13:55;101247.09;;;6.76
45034;BMP280;30771;47.988;-4.186;2023-02-11T21:16:21;101257.09;;;6.80
45034;BMP280;30771;47.988;-4.186;2023-02-11T21:18:46;101263.81;;;6.83
45034;BMP280;30771;47.988;-4.186;2023-02-11T21:21:12;101244.09;;;6.71
45034;BMP280;30771;47.988;-4.186;2023-02-11T21:23:37;101260.69;;;6.79
45034;BMP280;30771;47.988;-4.186;2023-02-11T21:26:03;101241.47;;;6.71
45034;BMP280;30771;47.988;-4.186;2023-02-11T21:28:28;101222.22;;;6.54
45034;BMP280;30771;47.988;-4.186;2023-02-11T21:30:54;101226.06;;;6.59
45034;BMP280;30771;47.988;-4.186;2023-02-11T21:33:21;101245.38;;;6.67
45034;BMP280;30771;47.988;-4.186;2023-02-11T21:35:46;101241.81;;;6.68
45034;BMP280;30771;47.988;-4.186;2023-02-11T21:38:12;101233.75;;;6.61
45034;BMP280;30771;47.988;-4.186;2023-02-11T21:40:38;101226.19;;;6.58
45034;BMP280;30771;47.988;-4.186;2023-02-11T21:43:03;101223.22;;;6.53
45034;BMP280;30771;47.988;-4.186;2023-02-11T21:45:28;101218.44;;;6.48
45034;BMP280;30771;47.988;-4.186;2023-02-11T21:47:54;101219.56;;;6.46
45034;BMP280;30771;47.988;-4.186;2023-02-11T21:50:19;101227.94;;;6.49
45034;BMP280;30771;47.988;-4.186;2023-02-11T21:52:44;101212.69;;;6.45
45034;BMP280;30771;47.988;-4.186;2023-02-11T21:55:10;101208.56;;;6.42
45034;BMP280;30771;47.988;-4.186;2023-02-11T21:57:35;101196.94;;;6.37
45034;BMP280;30771;47.988;-4.186;2023-02-11T22:00:01;101178.53;;;6.29
45034;BMP280;30771;47.988;-4.186;2023-02-11T22:02:26;101179.09;;;6.32
45034;BMP280;30771;47.988;-4.186;2023-02-11T22:04:51;101181.53;;;6.34
45034;BMP280;30771;47.988;-4.186;2023-02-11T22:07:17;101183.09;;;6.27
45034;BMP280;30771;47.988;-4.186;2023-02-11T22:09:42;101169.84;;;6.20
45034;BMP280;30771;47.988;-4.186;2023-02-11T22:12:07;101176.41;;;6.24
45034;BMP280;30771;47.988;-4.186;2023-02-11T22:14:34;101175.44;;;6.25
45034;BMP280;30771;47.988;-4.186;2023-02-11T22:16:59;101167.22;;;6.20
45034;BMP280;30771;47.988;-4.186;2023-02-11T22:19:24;101120.94;;;5.95
45034;BMP280;30771;47.988;-4.186;2023-02-11T22:21:50;101132.41;;;6.02
45034;BMP280;30771;47.988;-4.186;2023-02-11T22:24:15;101118.16;;;5.97
45034;BMP280;30771;47.988;-4.186;2023-02-11T22:26:40;101127.84;;;6.04
45034;BMP280;30771;47.988;-4.186;2023-02-11T22:29:06;101118.81;;;5.99
45034;BMP280;30771;47.988;-4.186;2023-02-11T22:31:33;101119.50;;;6.01
45034;BMP280;30771;47.988;-4.186;2023-02-11T22:33:58;101115.41;;;5.98
45034;BMP280;30771;47.988;-4.186;2023-02-11T22:36:26;101119.22;;;6.04
45034;BMP280;30771;47.988;-4.186;2023-02-11T22:38:53;101116.59;;;6.04
45034;BMP280;30771;47.988;-4.186;2023-02-11T22:41:19;101105.41;;;5.94
45034;BMP280;30771;47.988;-4.186;2023-02-11T22:43:45;101109.03;;;6.01
45034;BMP280;30771;47.988;-4.186;2023-02-11T22:46:13;101092.63;;;5.91
45034;BMP280;30771;47.988;-4.186;2023-02-11T22:48:39;101099.06;;;5.96
45034;BMP280;30771;47.988;-4.186;2023-02-11T22:51:05;101087.78;;;5.96
45034;BMP280;30771;47.988;-4.186;2023-02-11T22:53:31;101080.09;;;5.94
45034;BMP280;30771;47.988;-4.186;2023-02-11T22:56:04;101056.28;;;5.79
45034;BMP280;30771;47.988;-4.186;2023-02-11T22:58:30;101063.16;;;5.80
45034;BMP280;30771;47.988;-4.186;2023-02-11T23:00:55;101073.78;;;5.87
45034;BMP280;30771;47.988;-4.186;2023-02-11T23:03:21;101058.59;;;5.82
45034;BMP280;30771;47.988;-4.186;2023-02-11T23:05:46;101053.53;;;5.81